createdAt,value
2018-09-10T00:00:40.317Z,0
2018-09-10T00:01:48.962Z,0
2018-09-10T00:02:57.866Z,0
2018-09-10T00:04:06.780Z,0
2018-09-10T00:05:15.424Z,0
2018-09-10T00:06:24.070Z,0
2018-09-10T00:07:32.708Z,0
2018-09-10T00:08:41.360Z,0
2018-09-10T00:09:50.002Z,0
2018-09-10T00:10:58.649Z,0
2018-09-10T00:12:07.559Z,0
2018-09-10T00:13:16.201Z,0
2018-09-10T00:14:24.847Z,0
2018-09-10T00:15:33.498Z,0
2018-09-10T00:16:42.408Z,0
2018-09-10T00:17:51.046Z,0
2018-09-10T00:18:59.694Z,0
2018-09-10T00:20:08.369Z,0
2018-09-10T00:21:17.285Z,0
2018-09-10T00:22:25.916Z,0
2018-09-10T00:23:34.830Z,0
2018-09-10T00:24:43.473Z,0
2018-09-10T00:25:52.128Z,0
2018-09-10T00:27:00.764Z,0
2018-09-10T00:28:09.673Z,0
2018-09-10T00:29:18.311Z,0
2018-09-10T00:30:26.964Z,0
2018-09-10T00:31:35.606Z,0
2018-09-10T00:32:44.246Z,0
2018-09-10T00:33:52.891Z,0
2018-09-10T00:35:01.796Z,0
2018-09-10T00:36:10.450Z,0
2018-09-10T00:37:19.097Z,0
2018-09-10T00:38:27.748Z,0
2018-09-10T00:39:36.387Z,0
2018-09-10T00:40:45.044Z,0
2018-09-10T00:41:53.683Z,0
2018-09-10T00:43:02.341Z,0
2018-09-10T00:44:11.240Z,0
2018-09-10T00:45:19.894Z,0
2018-09-10T00:46:28.540Z,0
2018-09-10T00:47:37.185Z,0
2018-09-10T00:48:46.084Z,0
2018-09-10T00:49:54.731Z,0
2018-09-10T00:51:03.381Z,0
2018-09-10T00:52:12.039Z,0
2018-09-10T00:53:20.683Z,0
2018-09-10T00:54:29.316Z,0
2018-09-10T00:55:38.235Z,0
2018-09-10T00:56:47.137Z,0
2018-09-10T00:57:55.790Z,0
2018-09-10T00:59:04.427Z,0
2018-09-10T01:00:13.076Z,0
2018-09-10T01:01:21.719Z,0
2018-09-10T01:02:30.368Z,0
2018-09-10T01:03:39.266Z,0
2018-09-10T01:04:47.920Z,0
2018-09-10T01:05:56.561Z,0
2018-09-10T01:07:05.217Z,0
2018-09-10T01:08:14.650Z,0
2018-09-10T01:09:23.289Z,0
2018-09-10T01:10:31.933Z,0
2018-09-10T01:11:40.579Z,0
2018-09-10T01:12:49.494Z,0
2018-09-10T01:13:58.136Z,0
2018-09-10T01:15:07.036Z,0
2018-09-10T01:16:15.696Z,0
2018-09-10T01:17:24.328Z,0
2018-09-10T01:18:32.978Z,0
2018-09-10T01:19:41.619Z,0
2018-09-10T01:20:50.274Z,0
2018-09-10T01:21:59.170Z,0
2018-09-10T01:23:07.822Z,0
2018-09-10T01:24:16.729Z,0
2018-09-10T01:25:25.652Z,0
2018-09-10T01:26:34.294Z,0
2018-09-10T01:27:42.944Z,0
2018-09-10T01:28:51.854Z,0
2018-09-10T01:30:00.758Z,0
2018-09-10T01:31:09.682Z,0
2018-09-10T01:32:18.322Z,0
2018-09-10T01:33:26.973Z,0
2018-09-10T01:34:35.893Z,0
2018-09-10T01:35:44.539Z,0
2018-09-10T01:36:53.184Z,0
2018-09-10T01:38:01.833Z,0
2018-09-10T01:39:10.474Z,0
2018-09-10T01:40:19.123Z,0
2018-09-10T01:41:27.766Z,0
2018-09-10T01:42:36.413Z,0
2018-09-10T01:43:45.047Z,0
2018-09-10T01:44:53.695Z,0
2018-09-10T01:46:02.347Z,0
2018-09-10T01:47:10.998Z,0
2018-09-10T01:48:19.641Z,0
2018-09-10T01:49:28.281Z,0
2018-09-10T01:50:36.931Z,0
2018-09-10T01:51:45.574Z,0
2018-09-10T01:52:54.228Z,0
2018-09-10T01:54:02.862Z,0
2018-09-10T01:55:11.512Z,0
2018-09-10T01:56:20.152Z,0
2018-09-10T01:57:28.811Z,0
2018-09-10T01:58:37.713Z,0
2018-09-10T01:59:46.627Z,0
2018-09-10T02:00:55.270Z,0
2018-09-10T02:02:03.925Z,0
2018-09-10T02:03:12.566Z,0
2018-09-10T02:04:21.207Z,0
2018-09-10T02:05:29.849Z,0
2018-09-10T02:06:38.488Z,0
2018-09-10T02:07:47.405Z,0
2018-09-10T02:08:56.051Z,0
2018-09-10T02:10:04.702Z,0
2018-09-10T02:11:13.337Z,0
2018-09-10T02:12:21.988Z,0
2018-09-10T02:13:30.631Z,0
2018-09-10T02:14:39.277Z,0
2018-09-10T02:15:47.915Z,0
2018-09-10T02:16:56.629Z,0
2018-09-10T02:18:05.209Z,0
2018-09-10T02:19:13.852Z,0
2018-09-10T02:20:22.854Z,0
2018-09-10T02:21:31.425Z,0
2018-09-10T02:22:40.071Z,0
2018-09-10T02:23:48.717Z,0
2018-09-10T02:24:57.623Z,0
2018-09-10T02:26:06.263Z,0
2018-09-10T02:27:14.953Z,0
2018-09-10T02:28:24.081Z,0
2018-09-10T02:29:32.735Z,0
2018-09-10T02:30:41.382Z,0
2018-09-10T02:31:50.027Z,0
2018-09-10T02:32:58.936Z,0
2018-09-10T02:34:07.592Z,0
2018-09-10T02:35:16.497Z,0
2018-09-10T02:36:25.141Z,0
2018-09-10T02:37:34.043Z,0
2018-09-10T02:38:42.867Z,0
2018-09-10T02:39:51.337Z,0
2018-09-10T02:40:59.981Z,0
2018-09-10T02:42:08.625Z,0
2018-09-10T02:43:17.534Z,0
2018-09-10T02:44:26.189Z,0
2018-09-10T02:45:34.834Z,0
2018-09-10T02:46:43.748Z,0
2018-09-10T02:47:52.390Z,0
2018-09-10T02:49:01.039Z,0
2018-09-10T02:50:09.987Z,0
2018-09-10T02:51:18.597Z,0
2018-09-10T02:52:27.239Z,0
2018-09-10T02:53:36.158Z,0
2018-09-10T02:54:44.804Z,0
2018-09-10T02:55:53.709Z,0
2018-09-10T02:57:02.356Z,0
2018-09-10T02:58:11.264Z,0
2018-09-10T02:59:20.174Z,0
2018-09-10T03:00:29.086Z,0
2018-09-10T03:01:37.733Z,0
2018-09-10T03:02:46.375Z,0
2018-09-10T03:03:55.027Z,0
2018-09-10T03:05:03.674Z,0
2018-09-10T03:06:12.584Z,0
2018-09-10T03:07:21.227Z,0
2018-09-10T03:08:29.872Z,0
2018-09-10T03:09:39.045Z,0
2018-09-10T03:10:47.698Z,0
2018-09-10T03:11:56.400Z,0
2018-09-10T03:13:05.252Z,0
2018-09-10T03:14:14.168Z,0
2018-09-10T03:15:23.086Z,0
2018-09-10T03:16:31.990Z,0
2018-09-10T03:17:40.634Z,0
2018-09-10T03:18:49.280Z,0
2018-09-10T03:19:57.921Z,0
2018-09-10T03:21:06.839Z,0
2018-09-10T03:22:15.492Z,0
2018-09-10T03:23:24.420Z,0
2018-09-10T03:24:33.054Z,0
2018-09-10T03:25:41.705Z,0
2018-09-10T03:26:50.346Z,0
2018-09-10T03:27:59.262Z,0
2018-09-10T03:29:07.897Z,0
2018-09-10T03:30:16.563Z,0
2018-09-10T03:31:25.214Z,0
2018-09-10T03:32:33.879Z,0
2018-09-10T03:33:42.626Z,0
2018-09-10T03:34:51.555Z,0
2018-09-10T03:36:00.470Z,0
2018-09-10T03:37:09.120Z,0
2018-09-10T03:38:17.770Z,0
2018-09-10T03:39:26.406Z,0
2018-09-10T03:40:35.052Z,0
2018-09-10T03:41:43.956Z,0
2018-09-10T03:42:52.878Z,0
2018-09-10T03:44:01.515Z,0
2018-09-10T03:45:10.163Z,0
2018-09-10T03:46:18.809Z,0
2018-09-10T03:47:27.580Z,0
2018-09-10T03:48:36.099Z,0
2018-09-10T03:49:45.014Z,0
2018-09-10T03:50:53.651Z,0
2018-09-10T03:52:02.303Z,0
2018-09-10T03:53:10.948Z,0
2018-09-10T03:54:19.587Z,0
2018-09-10T03:55:28.233Z,0
2018-09-10T03:56:36.875Z,0
2018-09-10T03:57:45.533Z,0
2018-09-10T03:58:54.176Z,0
2018-09-10T04:00:02.822Z,0
2018-09-10T04:01:11.458Z,0
2018-09-10T04:02:20.394Z,0
2018-09-10T04:03:29.557Z,0
2018-09-10T04:04:38.209Z,0
2018-09-10T04:05:46.854Z,0
2018-09-10T04:06:55.769Z,0
2018-09-10T04:08:04.414Z,0
2018-09-10T04:09:13.063Z,0
2018-09-10T04:10:21.700Z,0
2018-09-10T04:11:30.623Z,0
2018-09-10T04:12:39.266Z,0
2018-09-10T04:13:47.916Z,0
2018-09-10T04:14:56.564Z,0
2018-09-10T04:16:05.205Z,0
2018-09-10T04:17:14.201Z,0
2018-09-10T04:18:22.760Z,0
2018-09-10T04:19:31.411Z,0
2018-09-10T04:20:40.316Z,0
2018-09-10T04:21:48.964Z,0
2018-09-10T04:22:57.880Z,0
2018-09-10T04:24:06.528Z,0
2018-09-10T04:25:15.172Z,0
2018-09-10T04:26:23.817Z,0
2018-09-10T04:27:32.459Z,0
2018-09-10T04:28:41.107Z,0
2018-09-10T04:29:49.748Z,0
2018-09-10T04:30:58.658Z,0
2018-09-10T04:32:07.329Z,0
2018-09-10T04:33:15.940Z,0
2018-09-10T04:34:24.592Z,0
2018-09-10T04:35:33.234Z,0
2018-09-10T04:36:42.143Z,0
2018-09-10T04:37:50.779Z,0
2018-09-10T04:38:59.428Z,0
2018-09-10T04:40:08.343Z,0
2018-09-10T04:41:16.992Z,0
2018-09-10T04:42:26.058Z,0
2018-09-10T04:43:34.673Z,0
2018-09-10T04:44:43.315Z,0
2018-09-10T04:45:51.960Z,0
2018-09-10T04:47:00.604Z,0
2018-09-10T04:48:09.515Z,0
2018-09-10T04:49:18.161Z,0
2018-09-10T04:50:27.078Z,0
2018-09-10T04:51:35.724Z,0
2018-09-10T04:52:44.625Z,0
2018-09-10T04:53:53.278Z,0
2018-09-10T04:55:02.194Z,0
2018-09-10T04:56:10.846Z,0
2018-09-10T04:57:19.485Z,0
2018-09-10T04:58:28.143Z,0
2018-09-10T04:59:36.785Z,0
2018-09-10T05:00:45.437Z,0
2018-09-10T05:01:54.349Z,0
2018-09-10T05:03:02.994Z,0
2018-09-10T05:04:11.640Z,0
2018-09-10T05:05:20.289Z,5
2018-09-10T05:06:28.932Z,5
2018-09-10T05:07:37.585Z,5
2018-09-10T05:08:46.229Z,5
2018-09-10T05:09:55.260Z,5
2018-09-10T05:11:03.871Z,5
2018-09-10T05:12:12.524Z,5
2018-09-10T05:13:21.179Z,10
2018-09-10T05:14:29.826Z,10
2018-09-10T05:15:39.037Z,10
2018-09-10T05:16:47.949Z,10
2018-09-10T05:17:56.604Z,10
2018-09-10T05:19:05.248Z,10
2018-09-10T05:20:13.890Z,15
2018-09-10T05:21:22.542Z,15
2018-09-10T05:22:31.180Z,15
2018-09-10T05:23:40.110Z,15
2018-09-10T05:24:48.754Z,15
2018-09-10T05:25:57.412Z,15
2018-09-10T05:27:06.052Z,15
2018-09-10T05:28:14.754Z,15
2018-09-10T05:29:23.350Z,15
2018-09-10T05:30:32.530Z,15
2018-09-10T05:31:41.178Z,15
2018-09-10T05:32:49.827Z,15
2018-09-10T05:33:58.999Z,15
2018-09-10T05:35:07.647Z,15
2018-09-10T05:36:16.558Z,20
2018-09-10T05:37:25.461Z,20
2018-09-10T05:38:34.374Z,20
2018-09-10T05:39:43.023Z,25
2018-09-10T05:40:51.664Z,25
2018-09-10T05:42:00.304Z,30
2018-09-10T05:43:08.956Z,30
2018-09-10T05:44:17.872Z,30
2018-09-10T05:45:26.520Z,35
2018-09-10T05:46:35.169Z,35
2018-09-10T05:47:43.806Z,35
2018-09-10T05:48:52.454Z,35
2018-09-10T05:50:01.106Z,40
2018-09-10T05:51:10.030Z,40
2018-09-10T05:52:18.671Z,40
2018-09-10T05:53:27.330Z,40
2018-09-10T05:54:35.976Z,40
2018-09-10T05:55:44.624Z,35
2018-09-10T05:56:53.527Z,35
2018-09-10T05:58:02.175Z,30
2018-09-10T05:59:10.817Z,30
2018-09-10T06:00:19.472Z,25
2018-09-10T06:01:28.115Z,25
2018-09-10T06:02:36.763Z,30
2018-09-10T06:03:45.407Z,30
2018-09-10T06:04:54.047Z,35
2018-09-10T06:06:02.701Z,40
2018-09-10T06:07:11.346Z,45
2018-09-10T06:08:20.259Z,50
2018-09-10T06:09:28.894Z,55
2018-09-10T06:10:37.676Z,65
2018-09-10T06:11:46.195Z,70
2018-09-10T06:12:54.842Z,70
2018-09-10T06:14:03.478Z,75
2018-09-10T06:15:12.138Z,80
2018-09-10T06:16:20.780Z,85
2018-09-10T06:17:29.689Z,90
2018-09-10T06:18:38.600Z,85
2018-09-10T06:19:47.515Z,85
2018-09-10T06:20:56.432Z,80
2018-09-10T06:22:05.080Z,80
2018-09-10T06:23:13.727Z,80
2018-09-10T06:24:22.631Z,90
2018-09-10T06:25:32.118Z,100
2018-09-10T06:26:40.757Z,115
2018-09-10T06:27:49.407Z,125
2018-09-10T06:28:58.048Z,125
2018-09-10T06:30:06.700Z,135
2018-09-10T06:31:15.337Z,140
2018-09-10T06:32:24.020Z,140
2018-09-10T06:33:32.627Z,135
2018-09-10T06:34:41.274Z,130
2018-09-10T06:35:50.180Z,125
2018-09-10T06:36:58.853Z,125
2018-09-10T06:38:07.498Z,115
2018-09-10T06:39:16.117Z,110
2018-09-10T06:40:24.762Z,105
2018-09-10T06:41:33.406Z,95
2018-09-10T06:42:42.061Z,90
2018-09-10T06:43:50.704Z,85
2018-09-10T06:44:59.357Z,85
2018-09-10T06:46:08.020Z,90
2018-09-10T06:47:16.649Z,105
2018-09-10T06:48:25.551Z,115
2018-09-10T06:49:34.471Z,125
2018-09-10T06:50:43.365Z,130
2018-09-10T06:51:52.018Z,135
2018-09-10T06:53:00.666Z,135
2018-09-10T06:54:09.315Z,135
2018-09-10T06:55:17.949Z,130
2018-09-10T06:56:26.598Z,130
2018-09-10T06:57:35.247Z,125
2018-09-10T06:58:43.896Z,120
2018-09-10T06:59:52.804Z,115
2018-09-10T07:01:01.440Z,115
2018-09-10T07:02:10.104Z,115
2018-09-10T07:03:18.746Z,115
2018-09-10T07:04:27.659Z,115
2018-09-10T07:05:36.301Z,115
2018-09-10T07:06:44.948Z,120
2018-09-10T07:07:53.589Z,120
2018-09-10T07:09:02.249Z,125
2018-09-10T07:10:11.145Z,130
2018-09-10T07:11:19.794Z,135
2018-09-10T07:12:28.734Z,150
2018-09-10T07:13:37.352Z,155
2018-09-10T07:14:45.998Z,165
2018-09-10T07:15:54.639Z,170
2018-09-10T07:17:03.288Z,175
2018-09-10T07:18:11.927Z,180
2018-09-10T07:19:20.581Z,190
2018-09-10T07:20:29.226Z,200
2018-09-10T07:21:37.877Z,205
2018-09-10T07:22:46.519Z,215
2018-09-10T07:23:55.172Z,215
2018-09-10T07:25:03.816Z,220
2018-09-10T07:26:12.468Z,245
2018-09-10T07:27:21.106Z,230
2018-09-10T07:28:29.762Z,235
2018-09-10T07:29:38.401Z,230
2018-09-10T07:30:47.048Z,230
2018-09-10T07:31:55.686Z,215
2018-09-10T07:33:04.340Z,195
2018-09-10T07:34:13.270Z,210
2018-09-10T07:35:21.919Z,190
2018-09-10T07:36:30.573Z,190
2018-09-10T07:37:39.477Z,185
2018-09-10T07:38:48.130Z,180
2018-09-10T07:39:56.771Z,175
2018-09-10T07:41:05.428Z,170
2018-09-10T07:42:14.329Z,165
2018-09-10T07:43:23.021Z,155
2018-09-10T07:44:31.624Z,150
2018-09-10T07:45:40.283Z,145
2018-09-10T07:46:48.918Z,140
2018-09-10T07:47:57.565Z,140
2018-09-10T07:49:06.211Z,140
2018-09-10T07:50:14.866Z,140
2018-09-10T07:51:23.511Z,140
2018-09-10T07:52:32.154Z,140
2018-09-10T07:53:40.801Z,140
2018-09-10T07:54:49.447Z,145
2018-09-10T07:55:58.102Z,150
2018-09-10T07:57:06.743Z,145
2018-09-10T07:58:15.398Z,150
2018-09-10T07:59:24.294Z,155
2018-09-10T08:00:32.948Z,160
2018-09-10T08:01:41.590Z,155
2018-09-10T08:02:50.297Z,150
2018-09-10T08:03:58.882Z,145
2018-09-10T08:05:07.532Z,140
2018-09-10T08:06:16.446Z,135
2018-09-10T08:07:25.092Z,140
2018-09-10T08:08:33.998Z,140
2018-09-10T08:09:42.765Z,145
2018-09-10T08:10:51.294Z,150
2018-09-10T08:11:59.943Z,150
2018-09-10T08:13:08.593Z,150
2018-09-10T08:14:17.236Z,150
2018-09-10T08:15:25.888Z,155
2018-09-10T08:16:34.576Z,160
2018-09-10T08:17:43.189Z,165
2018-09-10T08:18:51.835Z,165
2018-09-10T08:20:00.478Z,170
2018-09-10T08:21:09.125Z,180
2018-09-10T08:22:17.774Z,180
2018-09-10T08:23:26.418Z,185
2018-09-10T08:24:35.471Z,185
2018-09-10T08:25:44.117Z,190
2018-09-10T08:26:52.769Z,195
2018-09-10T08:28:01.416Z,190
2018-09-10T08:29:10.063Z,185
2018-09-10T08:30:18.755Z,185
2018-09-10T08:31:27.350Z,190
2018-09-10T08:32:36.004Z,200
2018-09-10T08:33:44.648Z,210
2018-09-10T08:34:53.294Z,205
2018-09-10T08:36:03.406Z,200
2018-09-10T08:37:12.058Z,185
2018-09-10T08:38:20.703Z,180
2018-09-10T08:39:29.351Z,170
2018-09-10T08:40:37.994Z,160
2018-09-10T08:41:46.645Z,155
2018-09-10T08:42:55.410Z,155
2018-09-10T08:44:04.212Z,155
2018-09-10T08:45:12.859Z,155
2018-09-10T08:46:21.510Z,165
2018-09-10T08:47:30.156Z,170
2018-09-10T08:48:39.068Z,180
2018-09-10T08:49:47.984Z,185
2018-09-10T08:50:56.628Z,185
2018-09-10T08:52:05.539Z,180
2018-09-10T08:53:14.190Z,180
2018-09-10T08:54:22.873Z,185
2018-09-10T08:55:32.232Z,195
2018-09-10T08:56:40.727Z,205
2018-09-10T08:57:49.919Z,215
2018-09-10T08:58:58.582Z,215
2018-09-10T09:00:07.806Z,225
2018-09-10T09:01:16.428Z,215
2018-09-10T09:02:25.324Z,215
2018-09-10T09:03:34.126Z,215
2018-09-10T09:04:42.971Z,210
2018-09-10T09:05:51.755Z,215
2018-09-10T09:07:00.669Z,215
2018-09-10T09:08:09.357Z,220
2018-09-10T09:09:17.999Z,225
2018-09-10T09:10:26.644Z,230
2018-09-10T09:11:35.295Z,230
2018-09-10T09:12:43.949Z,230
2018-09-10T09:13:52.593Z,225
2018-09-10T09:15:01.240Z,220
2018-09-10T09:16:09.888Z,215
2018-09-10T09:17:18.599Z,215
2018-09-10T09:18:27.185Z,225
2018-09-10T09:19:35.835Z,250
2018-09-10T09:20:44.484Z,260
2018-09-10T09:21:53.135Z,290
2018-09-10T09:23:01.822Z,305
2018-09-10T09:24:10.432Z,340
2018-09-10T09:25:19.077Z,335
2018-09-10T09:26:27.983Z,320
2018-09-10T09:27:36.635Z,305
2018-09-10T09:28:45.286Z,305
2018-09-10T09:29:53.955Z,315
2018-09-10T09:31:02.579Z,310
2018-09-10T09:32:11.232Z,290
2018-09-10T09:33:19.883Z,285
2018-09-10T09:34:28.648Z,285
2018-09-10T09:35:37.292Z,275
2018-09-10T09:36:46.203Z,270
2018-09-10T09:37:54.848Z,270
2018-09-10T09:39:03.763Z,270
2018-09-10T09:40:12.673Z,265
2018-09-10T09:41:21.326Z,260
2018-09-10T09:42:30.238Z,260
2018-09-10T09:43:38.889Z,265
2018-09-10T09:44:47.546Z,260
2018-09-10T09:45:56.191Z,255
2018-09-10T09:47:04.838Z,250
2018-09-10T09:48:13.489Z,235
2018-09-10T09:49:22.166Z,210
2018-09-10T09:50:31.000Z,190
2018-09-10T09:51:39.916Z,180
2018-09-10T09:52:48.563Z,180
2018-09-10T09:53:57.218Z,190
2018-09-10T09:55:05.868Z,210
2018-09-10T09:56:14.515Z,235
2018-09-10T09:57:23.163Z,245
2018-09-10T09:58:32.350Z,260
2018-09-10T09:59:41.308Z,265
2018-09-10T10:00:49.986Z,265
2018-09-10T10:01:58.968Z,270
2018-09-10T10:03:07.618Z,275
2018-09-10T10:04:16.347Z,280
2018-09-10T10:05:25.181Z,290
2018-09-10T10:06:33.832Z,295
2018-09-10T10:07:42.473Z,275
2018-09-10T10:08:51.131Z,255
2018-09-10T10:09:59.775Z,240
2018-09-10T10:11:08.471Z,230
2018-09-10T10:12:17.159Z,210
2018-09-10T10:13:25.733Z,200
2018-09-10T10:14:34.403Z,195
2018-09-10T10:15:43.052Z,195
2018-09-10T10:16:51.698Z,205
2018-09-10T10:18:00.347Z,225
2018-09-10T10:19:09.000Z,240
2018-09-10T10:20:17.649Z,255
2018-09-10T10:21:26.300Z,270
2018-09-10T10:22:34.938Z,265
2018-09-10T10:23:43.593Z,265
2018-09-10T10:24:52.540Z,255
2018-09-10T10:26:01.230Z,235
2018-09-10T10:27:09.870Z,235
2018-09-10T10:28:18.621Z,235
2018-09-10T10:29:27.873Z,230
2018-09-10T10:30:36.532Z,225
2018-09-10T10:31:45.171Z,225
2018-09-10T10:32:53.826Z,225
2018-09-10T10:34:02.737Z,225
2018-09-10T10:35:11.653Z,215
2018-09-10T10:36:20.309Z,210
2018-09-10T10:37:28.954Z,220
2018-09-10T10:38:37.601Z,225
2018-09-10T10:39:46.248Z,240
2018-09-10T10:40:54.906Z,230
2018-09-10T10:42:03.550Z,240
2018-09-10T10:43:12.202Z,235
2018-09-10T10:44:20.843Z,230
2018-09-10T10:45:29.501Z,230
2018-09-10T10:46:38.147Z,225
2018-09-10T10:47:46.800Z,220
2018-09-10T10:48:55.443Z,205
2018-09-10T10:50:04.107Z,190
2018-09-10T10:51:12.753Z,180
2018-09-10T10:52:21.403Z,180
2018-09-10T10:53:30.096Z,185
2018-09-10T10:54:38.755Z,190
2018-09-10T10:55:47.436Z,200
2018-09-10T10:56:56.087Z,210
2018-09-10T10:58:04.737Z,220
2018-09-10T10:59:13.376Z,225
2018-09-10T11:00:22.030Z,230
2018-09-10T11:01:30.946Z,240
2018-09-10T11:02:39.601Z,240
2018-09-10T11:03:48.242Z,240
2018-09-10T11:04:56.895Z,245
2018-09-10T11:06:05.542Z,260
2018-09-10T11:07:14.196Z,270
2018-09-10T11:08:22.843Z,275
2018-09-10T11:09:31.489Z,280
2018-09-10T11:10:40.673Z,295
2018-09-10T11:11:49.327Z,295
2018-09-10T11:12:57.973Z,300
2018-09-10T11:14:06.624Z,295
2018-09-10T11:15:15.268Z,290
2018-09-10T11:16:23.915Z,300
2018-09-10T11:17:32.568Z,300
2018-09-10T11:18:41.218Z,310
2018-09-10T11:19:49.866Z,310
2018-09-10T11:20:58.543Z,310
2018-09-10T11:22:07.195Z,310
2018-09-10T11:23:15.846Z,310
2018-09-10T11:24:24.496Z,305
2018-09-10T11:25:33.143Z,310
2018-09-10T11:26:41.801Z,305
2018-09-10T11:27:50.957Z,295
2018-09-10T11:28:59.658Z,280
2018-09-10T11:30:08.829Z,270
2018-09-10T11:31:17.480Z,265
2018-09-10T11:32:26.130Z,250
2018-09-10T11:33:34.780Z,265
2018-09-10T11:34:43.464Z,255
2018-09-10T11:35:52.343Z,250
2018-09-10T11:37:00.993Z,245
2018-09-10T11:38:10.168Z,240
2018-09-10T11:39:18.821Z,245
2018-09-10T11:40:27.467Z,255
2018-09-10T11:41:36.120Z,265
2018-09-10T11:42:44.767Z,265
2018-09-10T11:43:53.422Z,265
2018-09-10T11:45:02.069Z,265
2018-09-10T11:46:10.979Z,265
2018-09-10T11:47:19.625Z,265
2018-09-10T11:48:28.280Z,270
2018-09-10T11:49:36.927Z,270
2018-09-10T11:50:45.576Z,270
2018-09-10T11:51:54.223Z,270
2018-09-10T11:53:02.911Z,265
2018-09-10T11:54:12.153Z,255
2018-09-10T11:55:21.353Z,245
2018-09-10T11:56:30.282Z,240
2018-09-10T11:57:38.948Z,235
2018-09-10T11:58:47.606Z,230
2018-09-10T11:59:56.249Z,235
2018-09-10T12:01:04.919Z,240
2018-09-10T12:02:13.672Z,240
2018-09-10T12:03:22.326Z,245
2018-09-10T12:04:31.034Z,240
2018-09-10T12:05:39.713Z,240
2018-09-10T12:06:48.413Z,240
2018-09-10T12:07:57.069Z,240
2018-09-10T12:09:06.395Z,240
2018-09-10T12:10:15.031Z,235
2018-09-10T12:11:23.740Z,230
2018-09-10T12:12:32.938Z,215
2018-09-10T12:13:42.156Z,205
2018-09-10T12:14:50.972Z,200
2018-09-10T12:15:59.652Z,185
2018-09-10T12:17:08.298Z,170
2018-09-10T12:18:16.966Z,165
2018-09-10T12:19:25.633Z,165
2018-09-10T12:20:34.569Z,175
2018-09-10T12:21:43.209Z,185
2018-09-10T12:22:51.859Z,205
2018-09-10T12:24:00.505Z,225
2018-09-10T12:25:09.437Z,225
2018-09-10T12:26:18.082Z,225
2018-09-10T12:27:26.728Z,215
2018-09-10T12:28:35.486Z,200
2018-09-10T12:29:44.515Z,200
2018-09-10T12:30:53.183Z,195
2018-09-10T12:32:02.647Z,200
2018-09-10T12:33:11.310Z,200
2018-09-10T12:34:20.304Z,215
2018-09-10T12:35:29.428Z,235
2018-09-10T12:36:38.439Z,255
2018-09-10T12:37:47.095Z,265
2018-09-10T12:38:55.799Z,275
2018-09-10T12:40:04.461Z,295
2018-09-10T12:41:13.110Z,315
2018-09-10T12:42:21.768Z,320
2018-09-10T12:43:30.407Z,315
2018-09-10T12:44:39.058Z,315
2018-09-10T12:45:47.713Z,305
2018-09-10T12:46:56.365Z,315
2018-09-10T12:48:05.017Z,330
2018-09-10T12:49:13.654Z,315
2018-09-10T12:50:22.312Z,305
2018-09-10T12:51:30.955Z,300
2018-09-10T12:52:39.612Z,280
2018-09-10T12:53:48.252Z,270
2018-09-10T12:54:56.909Z,255
2018-09-10T12:56:05.558Z,275
2018-09-10T12:57:14.196Z,245
2018-09-10T12:58:22.855Z,300
2018-09-10T12:59:31.503Z,330
2018-09-10T13:00:40.157Z,335
2018-09-10T13:01:48.798Z,330
2018-09-10T13:02:57.450Z,320
2018-09-10T13:04:06.140Z,340
2018-09-10T13:05:15.078Z,320
2018-09-10T13:06:23.768Z,315
2018-09-10T13:07:32.411Z,305
2018-09-10T13:08:41.073Z,295
2018-09-10T13:09:49.792Z,290
2018-09-10T13:10:58.460Z,285
2018-09-10T13:12:07.367Z,280
2018-09-10T13:13:16.334Z,280
2018-09-10T13:14:25.082Z,295
2018-09-10T13:15:33.747Z,275
2018-09-10T13:16:42.386Z,280
2018-09-10T13:17:51.040Z,275
2018-09-10T13:18:59.796Z,265
2018-09-10T13:20:08.746Z,255
2018-09-10T13:21:17.481Z,255
2018-09-10T13:22:26.375Z,260
2018-09-10T13:23:35.437Z,255
2018-09-10T13:24:44.111Z,220
2018-09-10T13:25:53.038Z,200
2018-09-10T13:27:01.684Z,205
2018-09-10T13:28:10.340Z,215
2018-09-10T13:29:18.982Z,200
2018-09-10T13:30:27.644Z,190
2018-09-10T13:31:36.290Z,195
2018-09-10T13:32:44.944Z,185
2018-09-10T13:33:53.591Z,205
2018-09-10T13:35:02.244Z,210
2018-09-10T13:36:10.888Z,205
2018-09-10T13:37:19.541Z,200
2018-09-10T13:38:28.183Z,200
2018-09-10T13:39:36.839Z,205
2018-09-10T13:40:45.495Z,200
2018-09-10T13:41:54.416Z,205
2018-09-10T13:43:03.115Z,190
2018-09-10T13:44:11.708Z,165
2018-09-10T13:45:20.363Z,155
2018-09-10T13:46:29.009Z,155
2018-09-10T13:47:37.669Z,170
2018-09-10T13:48:46.310Z,185
2018-09-10T13:49:55.007Z,160
2018-09-10T13:51:03.616Z,135
2018-09-10T13:52:12.269Z,130
2018-09-10T13:53:20.915Z,150
2018-09-10T13:54:29.566Z,170
2018-09-10T13:55:38.219Z,185
2018-09-10T13:56:47.131Z,195
2018-09-10T13:57:55.783Z,195
2018-09-10T13:59:04.430Z,195
2018-09-10T14:00:13.078Z,190
2018-09-10T14:01:21.771Z,175
2018-09-10T14:02:30.379Z,170
2018-09-10T14:03:39.027Z,155
2018-09-10T14:04:47.942Z,150
2018-09-10T14:05:56.598Z,150
2018-09-10T14:07:05.883Z,160
2018-09-10T14:08:14.540Z,160
2018-09-10T14:09:23.191Z,160
2018-09-10T14:10:32.718Z,160
2018-09-10T14:11:41.588Z,155
2018-09-10T14:12:50.236Z,145
2018-09-10T14:13:58.889Z,150
2018-09-10T14:15:07.533Z,150
2018-09-10T14:16:16.185Z,155
2018-09-10T14:17:25.102Z,150
2018-09-10T14:18:33.765Z,145
2018-09-10T14:19:42.419Z,140
2018-09-10T14:20:51.064Z,135
2018-09-10T14:21:59.714Z,130
2018-09-10T14:23:08.365Z,130
2018-09-10T14:24:17.021Z,130
2018-09-10T14:25:25.667Z,130
2018-09-10T14:26:34.318Z,130
2018-09-10T14:27:42.975Z,135
2018-09-10T14:28:51.625Z,135
2018-09-10T14:30:00.270Z,135
2018-09-10T14:31:08.922Z,135
2018-09-10T14:32:17.571Z,135
2018-09-10T14:33:26.223Z,135
2018-09-10T14:34:34.886Z,135
2018-09-10T14:35:43.521Z,140
2018-09-10T14:36:52.169Z,140
2018-09-10T14:38:00.814Z,135
2018-09-10T14:39:09.740Z,130
2018-09-10T14:40:18.391Z,125
2018-09-10T14:41:27.041Z,130
2018-09-10T14:42:35.946Z,115
2018-09-10T14:43:44.604Z,115
2018-09-10T14:44:53.255Z,105
2018-09-10T14:46:01.904Z,100
2018-09-10T14:47:10.814Z,100
2018-09-10T14:48:19.477Z,100
2018-09-10T14:49:28.387Z,95
2018-09-10T14:50:37.466Z,85
2018-09-10T14:51:46.306Z,80
2018-09-10T14:52:54.956Z,70
2018-09-10T14:54:03.604Z,70
2018-09-10T14:55:12.252Z,85
2018-09-10T14:56:20.898Z,85
2018-09-10T14:57:29.824Z,95
2018-09-10T14:58:38.846Z,100
2018-09-10T14:59:47.510Z,105
2018-09-10T15:00:56.145Z,110
2018-09-10T15:02:04.802Z,115
2018-09-10T15:03:13.447Z,120
2018-09-10T15:04:22.220Z,120
2018-09-10T15:05:30.741Z,125
2018-09-10T15:06:39.398Z,130
2018-09-10T15:07:48.306Z,130
2018-09-10T15:08:56.966Z,125
2018-09-10T15:10:06.192Z,125
2018-09-10T15:11:14.843Z,120
2018-09-10T15:12:23.497Z,115
2018-09-10T15:13:32.146Z,110
2018-09-10T15:14:41.155Z,110
2018-09-10T15:15:49.790Z,110
2018-09-10T15:16:58.442Z,100
2018-09-10T15:18:07.086Z,95
2018-09-10T15:19:16.245Z,90
2018-09-10T15:20:25.234Z,85
2018-09-10T15:21:33.892Z,85
2018-09-10T15:22:42.800Z,85
2018-09-10T15:23:51.459Z,85
2018-09-10T15:25:00.360Z,85
2018-09-10T15:26:09.132Z,80
2018-09-10T15:27:18.185Z,75
2018-09-10T15:28:26.854Z,70
2018-09-10T15:29:35.504Z,75
2018-09-10T15:30:44.146Z,75
2018-09-10T15:31:52.793Z,80
2018-09-10T15:33:01.706Z,90
2018-09-10T15:34:10.626Z,95
2018-09-10T15:35:19.271Z,95
2018-09-10T15:36:27.929Z,100
2018-09-10T15:37:36.834Z,100
2018-09-10T15:38:45.492Z,105
2018-09-10T15:39:54.399Z,115
2018-09-10T15:41:03.052Z,115
2018-09-10T15:42:11.952Z,115
2018-09-10T15:43:20.615Z,120
2018-09-10T15:44:29.531Z,115
2018-09-10T15:45:38.186Z,110
2018-09-10T15:46:46.831Z,110
2018-09-10T15:47:55.485Z,110
2018-09-10T15:49:04.184Z,110
2018-09-10T15:50:12.784Z,105
2018-09-10T15:51:21.503Z,105
2018-09-10T15:52:30.342Z,100
2018-09-10T15:53:38.994Z,100
2018-09-10T15:54:47.924Z,100
2018-09-10T15:56:00.948Z,100
2018-09-10T15:57:14.178Z,100
2018-09-10T15:58:26.961Z,95
2018-09-10T15:59:35.930Z,90
2018-09-10T16:00:44.980Z,85
2018-09-10T16:01:53.952Z,85
2018-09-10T16:03:02.606Z,90
2018-09-10T16:04:11.511Z,85
2018-09-10T16:05:20.684Z,75
2018-09-10T16:06:29.598Z,70
2018-09-10T16:07:38.245Z,65
2018-09-10T16:08:46.892Z,65
2018-09-10T16:09:55.536Z,65
2018-09-10T16:11:04.190Z,65
2018-09-10T16:12:12.839Z,65